sensor_id;sensor_type;location;lat;lon;timestamp;P1;durP1;ratioP1;P2;durP2;ratioP2
20482;SDS011;10400;53.198;6.592;2023-10-13T00:00:28;55.75;;;28.45;;
20482;SDS011;10400;53.198;6.592;2023-10-13T00:02:57;63.38;;;30.55;;
20482;SDS011;10400;53.198;6.592;2023-10-13T00:05:27;63.17;;;32.30;;
20482;SDS011;10400;53.198;6.592;2023-10-13T00:07:56;66.88;;;32.10;;
20482;SDS011;10400;53.198;6.592;2023-10-13T00:10:30;69.35;;;33.22;;
20482;SDS011;10400;53.198;6.592;2023-10-13T00:12:58;64.93;;;32.05;;
20482;SDS011;10400;53.198;6.592;2023-10-13T00:15:50;67.13;;;33.20;;
20482;SDS011;10400;53.198;6.592;2023-10-13T00:18:31;68.43;;;34.10;;
20482;SDS011;10400;53.198;6.592;2023-10-13T00:21:06;70.78;;;33.80;;
20482;SDS011;10400;53.198;6.592;2023-10-13T00:24:00;63.65;;;33.47;;
20482;SDS011;10400;53.198;6.592;2023-10-13T00:26:27;60.40;;;30.60;;
20482;SDS011;10400;53.198;6.592;2023-10-13T00:28:57;64.88;;;33.53;;
20482;SDS011;10400;53.198;6.592;2023-10-13T00:31:26;62.20;;;32.15;;
20482;SDS011;10400;53.198;6.592;2023-10-13T00:33:58;64.28;;;31.75;;
20482;SDS011;10400;53.198;6.592;2023-10-13T00:36:34;60.03;;;32.83;;
20482;SDS011;10400;53.198;6.592;2023-10-13T00:39:00;66.45;;;32.67;;
20482;SDS011;10400;53.198;6.592;2023-10-13T00:41:26;58.25;;;32.55;;
20482;SDS011;10400;53.198;6.592;2023-10-13T00:44:12;69.20;;;33.47;;
20482;SDS011;10400;53.198;6.592;2023-10-13T00:46:41;64.40;;;33.65;;
20482;SDS011;10400;53.198;6.592;2023-10-13T00:49:09;61.22;;;31.70;;
20482;SDS011;10400;53.198;6.592;2023-10-13T00:51:40;61.95;;;32.08;;
20482;SDS011;10400;53.198;6.592;2023-10-13T00:54:12;68.10;;;33.28;;
20482;SDS011;10400;53.198;6.592;2023-10-13T00:56:39;59.63;;;31.10;;
20482;SDS011;10400;53.198;6.592;2023-10-13T00:59:17;58.42;;;31.20;;
20482;SDS011;10400;53.198;6.592;2023-10-13T01:01:48;62.55;;;31.23;;
20482;SDS011;10400;53.198;6.592;2023-10-13T01:04:19;51.35;;;29.05;;
20482;SDS011;10400;53.198;6.592;2023-10-13T01:06:45;57.47;;;30.38;;
20482;SDS011;10400;53.198;6.592;2023-10-13T01:09:11;54.25;;;30.92;;
20482;SDS011;10400;53.198;6.592;2023-10-13T01:11:40;58.42;;;30.77;;
20482;SDS011;10400;53.198;6.592;2023-10-13T01:14:11;54.03;;;29.98;;
20482;SDS011;10400;53.198;6.592;2023-10-13T01:16:40;62.83;;;31.45;;
20482;SDS011;10400;53.198;6.592;2023-10-13T01:19:08;60.53;;;30.10;;
20482;SDS011;10400;53.198;6.592;2023-10-13T01:21:40;58.60;;;30.92;;
20482;SDS011;10400;53.198;6.592;2023-10-13T01:24:06;55.05;;;30.92;;
20482;SDS011;10400;53.198;6.592;2023-10-13T01:26:35;55.60;;;28.75;;
20482;SDS011;10400;53.198;6.592;2023-10-13T01:29:05;52.40;;;29.00;;
20482;SDS011;10400;53.198;6.592;2023-10-13T01:31:42;52.20;;;28.98;;
20482;SDS011;10400;53.198;6.592;2023-10-13T01:34:12;53.05;;;27.90;;
20482;SDS011;10400;53.198;6.592;2023-10-13T01:36:56;48.10;;;27.17;;
20482;SDS011;10400;53.198;6.592;2023-10-13T01:39:22;49.90;;;27.30;;
20482;SDS011;10400;53.198;6.592;2023-10-13T01:41:53;48.55;;;25.42;;
20482;SDS011;10400;53.198;6.592;2023-10-13T01:44:25;44.42;;;26.20;;
20482;SDS011;10400;53.198;6.592;2023-10-13T01:46:58;52.30;;;26.38;;
20482;SDS011;10400;53.198;6.592;2023-10-13T01:49:34;47.70;;;26.08;;
20482;SDS011;10400;53.198;6.592;2023-10-13T01:52:07;51.42;;;26.02;;
20482;SDS011;10400;53.198;6.592;2023-10-13T01:54:36;46.45;;;24.10;;
20482;SDS011;10400;53.198;6.592;2023-10-13T01:57:06;43.03;;;24.67;;
20482;SDS011;10400;53.198;6.592;2023-10-13T01:59:32;39.83;;;23.60;;
20482;SDS011;10400;53.198;6.592;2023-10-13T02:01:58;45.25;;;24.40;;
20482;SDS011;10400;53.198;6.592;2023-10-13T02:04:26;43.70;;;23.15;;
20482;SDS011;10400;53.198;6.592;2023-10-13T02:06:52;43.30;;;21.73;;
20482;SDS011;10400;53.198;6.592;2023-10-13T02:09:18;44.20;;;22.30;;
20482;SDS011;10400;53.198;6.592;2023-10-13T02:11:54;40.03;;;21.15;;
20482;SDS011;10400;53.198;6.592;2023-10-13T02:14:23;41.33;;;20.67;;
20482;SDS011;10400;53.198;6.592;2023-10-13T02:16:50;35.83;;;20.45;;
20482;SDS011;10400;53.198;6.592;2023-10-13T02:19:21;36.55;;;20.02;;
20482;SDS011;10400;53.198;6.592;2023-10-13T02:21:47;36.70;;;20.30;;
20482;SDS011;10400;53.198;6.592;2023-10-13T02:24:23;38.15;;;21.52;;
20482;SDS011;10400;53.198;6.592;2023-10-13T02:26:54;37.28;;;20.40;;
20482;SDS011;10400;53.198;6.592;2023-10-13T02:29:25;32.17;;;20.55;;
20482;SDS011;10400;53.198;6.592;2023-10-13T02:31:50;32.17;;;18.98;;
20482;SDS011;10400;53.198;6.592;2023-10-13T02:34:20;31.58;;;20.13;;
20482;SDS011;10400;53.198;6.592;2023-10-13T02:36:48;33.90;;;20.63;;
20482;SDS011;10400;53.198;6.592;2023-10-13T02:39:14;30.08;;;19.15;;
20482;SDS011;10400;53.198;6.592;2023-10-13T02:41:50;32.33;;;18.98;;
20482;SDS011;10400;53.198;6.592;2023-10-13T02:44:16;33.53;;;19.02;;
20482;SDS011;10400;53.198;6.592;2023-10-13T02:46:56;31.52;;;17.88;;
20482;SDS011;10400;53.198;6.592;2023-10-13T02:49:26;27.33;;;17.58;;
20482;SDS011;10400;53.198;6.592;2023-10-13T02:51:52;31.25;;;17.95;;
20482;SDS011;10400;53.198;6.592;2023-10-13T02:54:20;30.75;;;18.23;;
20482;SDS011;10400;53.198;6.592;2023-10-13T02:56:46;27.48;;;18.35;;
20482;SDS011;10400;53.198;6.592;2023-10-13T02:59:22;28.98;;;18.50;;
20482;SDS011;10400;53.198;6.592;2023-10-13T03:02:00;29.48;;;16.33;;
20482;SDS011;10400;53.198;6.592;2023-10-13T03:04:32;30.98;;;19.55;;
20482;SDS011;10400;53.198;6.592;2023-10-13T03:06:58;30.10;;;19.70;;
20482;SDS011;10400;53.198;6.592;2023-10-13T03:09:24;29.70;;;19.38;;
20482;SDS011;10400;53.198;6.592;2023-10-13T03:11:50;35.70;;;20.92;;
20482;SDS011;10400;53.198;6.592;2023-10-13T03:14:17;33.25;;;21.50;;
20482;SDS011;10400;53.198;6.592;2023-10-13T03:16:52;40.63;;;22.40;;
20482;SDS011;10400;53.198;6.592;2023-10-13T03:19:19;39.05;;;22.13;;
20482;SDS011;10400;53.198;6.592;2023-10-13T03:21:45;39.95;;;23.13;;
20482;SDS011;10400;53.198;6.592;2023-10-13T03:24:21;42.38;;;23.27;;
20482;SDS011;10400;53.198;6.592;2023-10-13T03:27:02;42.28;;;24.27;;
20482;SDS011;10400;53.198;6.592;2023-10-13T03:29:38;48.50;;;26.33;;
20482;SDS011;10400;53.198;6.592;2023-10-13T03:32:07;36.70;;;24.48;;
20482;SDS011;10400;53.198;6.592;2023-10-13T03:34:39;38.45;;;24.63;;
20482;SDS011;10400;53.198;6.592;2023-10-13T03:37:14;38.38;;;24.20;;
20482;SDS011;10400;53.198;6.592;2023-10-13T03:40:03;46.08;;;24.25;;
20482;SDS011;10400;53.198;6.592;2023-10-13T03:42:48;32.65;;;20.75;;
20482;SDS011;10400;53.198;6.592;2023-10-13T03:45:32;34.65;;;20.35;;
20482;SDS011;10400;53.198;6.592;2023-10-13T03:48:03;26.27;;;17.30;;
20482;SDS011;10400;53.198;6.592;2023-10-13T03:50:34;25.80;;;16.95;;
20482;SDS011;10400;53.198;6.592;2023-10-13T03:53:12;23.02;;;15.65;;
20482;SDS011;10400;53.198;6.592;2023-10-13T03:55:38;20.95;;;14.60;;
20482;SDS011;10400;53.198;6.592;2023-10-13T03:58:04;24.92;;;15.38;;
20482;SDS011;10400;53.198;6.592;2023-10-13T04:00:31;19.42;;;14.20;;
20482;SDS011;10400;53.198;6.592;2023-10-13T04:02:57;21.40;;;14.45;;
20482;SDS011;10400;53.198;6.592;2023-10-13T04:05:41;20.52;;;14.07;;
20482;SDS011;10400;53.198;6.592;2023-10-13T04:08:25;24.00;;;15.85;;
20482;SDS011;10400;53.198;6.592;2023-10-13T04:10:57;21.77;;;14.80;;
20482;SDS011;10400;53.198;6.592;2023-10-13T04:13:23;23.75;;;15.02;;
20482;SDS011;10400;53.198;6.592;2023-10-13T04:16:07;22.55;;;14.32;;
20482;SDS011;10400;53.198;6.592;2023-10-13T04:18:54;23.20;;;15.60;;
20482;SDS011;10400;53.198;6.592;2023-10-13T04:21:20;25.92;;;15.77;;
20482;SDS011;10400;53.198;6.592;2023-10-13T04:24:10;21.92;;;14.70;;
20482;SDS011;10400;53.198;6.592;2023-10-13T04:26:43;21.63;;;14.30;;
20482;SDS011;10400;53.198;6.592;2023-10-13T04:29:36;26.33;;;16.05;;
20482;SDS011;10400;53.198;6.592;2023-10-13T04:32:37;22.15;;;15.23;;
20482;SDS011;10400;53.198;6.592;2023-10-13T04:35:04;25.52;;;15.50;;
20482;SDS011;10400;53.198;6.592;2023-10-13T04:37:39;22.42;;;14.75;;
20482;SDS011;10400;53.198;6.592;2023-10-13T04:40:23;20.70;;;14.88;;
20482;SDS011;10400;53.198;6.592;2023-10-13T04:42:53;22.17;;;15.20;;
20482;SDS011;10400;53.198;6.592;2023-10-13T04:45:22;25.17;;;14.95;;
20482;SDS011;10400;53.198;6.592;2023-10-13T04:48:08;22.67;;;15.00;;
20482;SDS011;10400;53.198;6.592;2023-10-13T04:50:46;25.25;;;15.57;;
20482;SDS011;10400;53.198;6.592;2023-10-13T04:53:17;26.90;;;16.40;;
20482;SDS011;10400;53.198;6.592;2023-10-13T04:55:59;27.38;;;16.80;;
20482;SDS011;10400;53.198;6.592;2023-10-13T04:58:29;30.05;;;16.63;;
20482;SDS011;10400;53.198;6.592;2023-10-13T05:01:00;29.33;;;17.42;;
20482;SDS011;10400;53.198;6.592;2023-10-13T05:03:51;27.35;;;17.05;;
20482;SDS011;10400;53.198;6.592;2023-10-13T05:06:35;28.20;;;17.35;;
20482;SDS011;10400;53.198;6.592;2023-10-13T05:09:06;30.42;;;17.42;;
20482;SDS011;10400;53.198;6.592;2023-10-13T05:11:51;26.70;;;17.58;;
20482;SDS011;10400;53.198;6.592;2023-10-13T05:14:35;23.25;;;16.13;;
20482;SDS011;10400;53.198;6.592;2023-10-13T05:17:19;23.52;;;15.88;;
20482;SDS011;10400;53.198;6.592;2023-10-13T05:20:03;27.83;;;16.52;;
20482;SDS011;10400;53.198;6.592;2023-10-13T05:22:48;25.35;;;15.38;;
20482;SDS011;10400;53.198;6.592;2023-10-13T05:25:35;23.65;;;14.57;;
20482;SDS011;10400;53.198;6.592;2023-10-13T05:28:20;20.08;;;13.50;;
20482;SDS011;10400;53.198;6.592;2023-10-13T05:31:04;18.73;;;12.80;;
20482;SDS011;10400;53.198;6.592;2023-10-13T05:33:50;18.05;;;12.25;;
20482;SDS011;10400;53.198;6.592;2023-10-13T05:36:34;17.35;;;12.75;;
20482;SDS011;10400;53.198;6.592;2023-10-13T05:39:19;17.75;;;11.85;;
20482;SDS011;10400;53.198;6.592;2023-10-13T05:42:03;16.95;;;11.35;;
20482;SDS011;10400;53.198;6.592;2023-10-13T05:44:47;16.95;;;10.73;;
20482;SDS011;10400;53.198;6.592;2023-10-13T05:47:41;11.57;;;9.00;;
20482;SDS011;10400;53.198;6.592;2023-10-13T05:50:07;11.38;;;8.57;;
20482;SDS011;10400;53.198;6.592;2023-10-13T05:52:45;11.90;;;8.68;;
20482;SDS011;10400;53.198;6.592;2023-10-13T05:55:27;11.48;;;7.68;;
20482;SDS011;10400;53.198;6.592;2023-10-13T05:58:12;13.43;;;8.80;;
20482;SDS011;10400;53.198;6.592;2023-10-13T06:00:57;10.00;;;8.35;;
20482;SDS011;10400;53.198;6.592;2023-10-13T06:03:42;12.50;;;8.57;;
20482;SDS011;10400;53.198;6.592;2023-10-13T06:06:26;14.27;;;8.35;;
20482;SDS011;10400;53.198;6.592;2023-10-13T06:09:10;9.23;;;7.80;;
20482;SDS011;10400;53.198;6.592;2023-10-13T06:11:54;10.45;;;7.78;;
20482;SDS011;10400;53.198;6.592;2023-10-13T06:14:39;9.52;;;7.00;;
20482;SDS011;10400;53.198;6.592;2023-10-13T06:17:23;7.38;;;6.03;;
20482;SDS011;10400;53.198;6.592;2023-10-13T06:20:07;6.80;;;5.78;;
20482;SDS011;10400;53.198;6.592;2023-10-13T06:22:52;9.40;;;5.40;;
20482;SDS011;10400;53.198;6.592;2023-10-13T06:25:36;6.97;;;5.85;;
20482;SDS011;10400;53.198;6.592;2023-10-13T06:28:21;7.65;;;6.80;;
20482;SDS011;10400;53.198;6.592;2023-10-13T06:31:05;12.20;;;7.75;;
20482;SDS011;10400;53.198;6.592;2023-10-13T06:33:34;13.23;;;7.38;;
20482;SDS011;10400;53.198;6.592;2023-10-13T06:36:03;10.10;;;7.25;;
20482;SDS011;10400;53.198;6.592;2023-10-13T06:38:34;9.55;;;7.13;;
20482;SDS011;10400;53.198;6.592;2023-10-13T06:41:06;9.52;;;6.93;;
20482;SDS011;10400;53.198;6.592;2023-10-13T06:43:33;7.90;;;6.57;;
20482;SDS011;10400;53.198;6.592;2023-10-13T06:46:05;9.68;;;7.28;;
20482;SDS011;10400;53.198;6.592;2023-10-13T06:48:40;7.00;;;6.20;;
20482;SDS011;10400;53.198;6.592;2023-10-13T06:51:07;8.18;;;6.28;;
20482;SDS011;10400;53.198;6.592;2023-10-13T06:53:48;6.43;;;5.57;;
20482;SDS011;10400;53.198;6.592;2023-10-13T06:56:17;6.68;;;5.95;;
20482;SDS011;10400;53.198;6.592;2023-10-13T06:58:53;8.85;;;5.70;;
20482;SDS011;10400;53.198;6.592;2023-10-13T07:01:29;11.40;;;6.05;;
20482;SDS011;10400;53.198;6.592;2023-10-13T07:03:55;8.63;;;5.57;;
20482;SDS011;10400;53.198;6.592;2023-10-13T07:06:26;9.68;;;5.43;;
20482;SDS011;10400;53.198;6.592;2023-10-13T07:08:52;7.55;;;5.35;;
20482;SDS011;10400;53.198;6.592;2023-10-13T07:11:18;7.88;;;4.65;;
20482;SDS011;10400;53.198;6.592;2023-10-13T07:13:58;7.60;;;4.80;;
20482;SDS011;10400;53.198;6.592;2023-10-13T07:16:25;8.48;;;4.30;;
20482;SDS011;10400;53.198;6.592;2023-10-13T07:19:00;8.20;;;4.68;;
20482;SDS011;10400;53.198;6.592;2023-10-13T07:21:30;7.28;;;4.57;;
20482;SDS011;10400;53.198;6.592;2023-10-13T07:23:57;9.00;;;4.38;;
20482;SDS011;10400;53.198;6.592;2023-10-13T07:26:32;9.13;;;5.05;;
20482;SDS011;10400;53.198;6.592;2023-10-13T07:28:58;11.40;;;4.60;;
20482;SDS011;10400;53.198;6.592;2023-10-13T07:31:25;8.85;;;4.30;;
20482;SDS011;10400;53.198;6.592;2023-10-13T07:33:52;11.27;;;4.72;;
20482;SDS011;10400;53.198;6.592;2023-10-13T07:36:28;9.93;;;4.75;;
20482;SDS011;10400;53.198;6.592;2023-10-13T07:39:04;8.43;;;4.72;;
20482;SDS011;10400;53.198;6.592;2023-10-13T07:41:49;10.55;;;4.43;;
20482;SDS011;10400;53.198;6.592;2023-10-13T07:44:34;7.45;;;4.18;;
20482;SDS011;10400;53.198;6.592;2023-10-13T07:47:05;12.85;;;5.00;;
20482;SDS011;10400;53.198;6.592;2023-10-13T07:49:33;10.50;;;4.85;;
20482;SDS011;10400;53.198;6.592;2023-10-13T07:52:01;13.07;;;4.85;;
20482;SDS011;10400;53.198;6.592;2023-10-13T07:54:45;13.75;;;4.82;;
20482;SDS011;10400;53.198;6.592;2023-10-13T07:57:14;6.35;;;4.72;;
20482;SDS011;10400;53.198;6.592;2023-10-13T07:59:41;10.55;;;4.68;;
20482;SDS011;10400;53.198;6.592;2023-10-13T08:02:14;11.32;;;4.72;;
20482;SDS011;10400;53.198;6.592;2023-10-13T08:05:00;9.02;;;4.68;;
20482;SDS011;10400;53.198;6.592;2023-10-13T08:07:26;9.35;;;4.63;;
20482;SDS011;10400;53.198;6.592;2023-10-13T08:09:53;9.77;;;4.82;;
20482;SDS011;10400;53.198;6.592;2023-10-13T08:12:19;11.40;;;4.75;;
20482;SDS011;10400;53.198;6.592;2023-10-13T08:14:47;9.68;;;5.07;;
20482;SDS011;10400;53.198;6.592;2023-10-13T08:17:13;11.57;;;4.72;;
20482;SDS011;10400;53.198;6.592;2023-10-13T08:19:41;11.55;;;4.78;;
20482;SDS011;10400;53.198;6.592;2023-10-13T08:22:10;12.40;;;4.95;;
20482;SDS011;10400;53.198;6.592;2023-10-13T08:24:59;12.93;;;5.10;;
20482;SDS011;10400;53.198;6.592;2023-10-13T08:27:54;10.82;;;4.97;;
20482;SDS011;10400;53.198;6.592;2023-10-13T08:30:39;13.70;;;4.82;;
20482;SDS011;10400;53.198;6.592;2023-10-13T08:33:17;10.07;;;5.00;;
20482;SDS011;10400;53.198;6.592;2023-10-13T08:35:43;13.48;;;5.10;;
20482;SDS011;10400;53.198;6.592;2023-10-13T08:38:29;15.38;;;4.82;;
20482;SDS011;10400;53.198;6.592;2023-10-13T08:41:08;16.20;;;5.45;;
20482;SDS011;10400;53.198;6.592;2023-10-13T08:43:52;14.27;;;5.03;;
20482;SDS011;10400;53.198;6.592;2023-10-13T08:46:28;13.93;;;5.18;;
20482;SDS011;10400;53.198;6.592;2023-10-13T08:49:03;12.82;;;5.75;;
20482;SDS011;10400;53.198;6.592;2023-10-13T08:51:41;14.15;;;5.32;;
20482;SDS011;10400;53.198;6.592;2023-10-13T08:54:13;18.35;;;6.05;;
20482;SDS011;10400;53.198;6.592;2023-10-13T08:56:59;12.90;;;5.47;;
20482;SDS011;10400;53.198;6.592;2023-10-13T08:59:44;12.25;;;5.72;;
20482;SDS011;10400;53.198;6.592;2023-10-13T09:02:20;11.85;;;5.30;;
20482;SDS011;10400;53.198;6.592;2023-10-13T09:05:09;15.15;;;6.10;;
20482;SDS011;10400;53.198;6.592;2023-10-13T09:07:55;15.82;;;5.72;;
20482;SDS011;10400;53.198;6.592;2023-10-13T09:10:24;14.05;;;6.07;;
20482;SDS011;10400;53.198;6.592;2023-10-13T09:12:58;11.45;;;6.38;;
20482;SDS011;10400;53.198;6.592;2023-10-13T09:15:28;15.77;;;6.10;;
20482;SDS011;10400;53.198;6.592;2023-10-13T09:18:24;14.68;;;5.55;;
20482;SDS011;10400;53.198;6.592;2023-10-13T09:21:11;15.10;;;6.28;;
20482;SDS011;10400;53.198;6.592;2023-10-13T09:23:56;12.95;;;6.10;;
20482;SDS011;10400;53.198;6.592;2023-10-13T09:26:41;17.83;;;6.50;;
20482;SDS011;10400;53.198;6.592;2023-10-13T09:29:17;13.20;;;6.72;;
20482;SDS011;10400;53.198;6.592;2023-10-13T09:31:44;14.73;;;6.40;;
20482;SDS011;10400;53.198;6.592;2023-10-13T09:34:19;14.10;;;6.30;;
20482;SDS011;10400;53.198;6.592;2023-10-13T09:36:46;13.85;;;5.97;;
20482;SDS011;10400;53.198;6.592;2023-10-13T09:39:12;15.38;;;6.10;;
20482;SDS011;10400;53.198;6.592;2023-10-13T09:41:54;14.98;;;6.53;;
20482;SDS011;10400;53.198;6.592;2023-10-13T09:44:24;12.00;;;6.30;;
20482;SDS011;10400;53.198;6.592;2023-10-13T09:46:55;14.30;;;6.15;;
20482;SDS011;10400;53.198;6.592;2023-10-13T09:49:31;11.20;;;6.60;;
20482;SDS011;10400;53.198;6.592;2023-10-13T09:52:15;13.80;;;6.20;;
20482;SDS011;10400;53.198;6.592;2023-10-13T09:54:49;15.10;;;5.97;;
20482;SDS011;10400;53.198;6.592;2023-10-13T09:57:24;13.13;;;5.75;;
20482;SDS011;10400;53.198;6.592;2023-10-13T10:00:06;12.82;;;5.82;;
20482;SDS011;10400;53.198;6.592;2023-10-13T10:02:56;14.45;;;5.45;;
20482;SDS011;10400;53.198;6.592;2023-10-13T10:05:24;10.07;;;5.50;;
20482;SDS011;10400;53.198;6.592;2023-10-13T10:07:54;15.45;;;5.63;;
20482;SDS011;10400;53.198;6.592;2023-10-13T10:10:21;13.27;;;5.63;;
20482;SDS011;10400;53.198;6.592;2023-10-13T10:12:59;13.00;;;5.38;;
20482;SDS011;10400;53.198;6.592;2023-10-13T10:15:35;14.10;;;5.55;;
20482;SDS011;10400;53.198;6.592;2023-10-13T10:18:20;15.27;;;5.53;;
20482;SDS011;10400;53.198;6.592;2023-10-13T10:20:48;11.90;;;5.20;;
20482;SDS011;10400;53.198;6.592;2023-10-13T10:23:26;15.98;;;5.28;;
20482;SDS011;10400;53.198;6.592;2023-10-13T10:26:13;14.45;;;4.75;;
20482;SDS011;10400;53.198;6.592;2023-10-13T10:28:41;14.40;;;5.00;;
20482;SDS011;10400;53.198;6.592;2023-10-13T10:31:08;16.80;;;5.30;;
20482;SDS011;10400;53.198;6.592;2023-10-13T10:33:37;14.68;;;5.05;;
20482;SDS011;10400;53.198;6.592;2023-10-13T10:36:04;13.48;;;6.10;;
20482;SDS011;10400;53.198;6.592;2023-10-13T10:38:30;21.20;;;5.53;;
20482;SDS011;10400;53.198;6.592;2023-10-13T10:41:05;15.20;;;5.50;;
20482;SDS011;10400;53.198;6.592;2023-10-13T10:48:43;9.95;;;4.63;;
20482;SDS011;10400;53.198;6.592;2023-10-13T10:51:13;17.52;;;5.55;;
20482;SDS011;10400;53.198;6.592;2023-10-13T10:53:46;14.90;;;5.03;;
20482;SDS011;10400;53.198;6.592;2023-10-13T10:56:14;13.07;;;4.70;;
20482;SDS011;10400;53.198;6.592;2023-10-13T10:58:53;17.67;;;5.22;;
20482;SDS011;10400;53.198;6.592;2023-10-13T11:01:27;9.13;;;4.50;;
20482;SDS011;10400;53.198;6.592;2023-10-13T11:04:04;16.27;;;4.65;;
20482;SDS011;10400;53.198;6.592;2023-10-13T11:06:36;16.13;;;4.47;;
20482;SDS011;10400;53.198;6.592;2023-10-13T11:09:12;15.18;;;5.25;;
20482;SDS011;10400;53.198;6.592;2023-10-13T11:14:39;14.38;;;5.72;;
20482;SDS011;10400;53.198;6.592;2023-10-13T11:17:04;12.35;;;4.65;;
20482;SDS011;10400;53.198;6.592;2023-10-13T11:19:39;13.32;;;4.88;;
20482;SDS011;10400;53.198;6.592;2023-10-13T11:22:12;13.65;;;4.63;;
20482;SDS011;10400;53.198;6.592;2023-10-13T11:24:58;15.65;;;5.15;;
20482;SDS011;10400;53.198;6.592;2023-10-13T11:27:30;9.73;;;4.22;;
20482;SDS011;10400;53.198;6.592;2023-10-13T11:30:12;12.20;;;4.68;;
20482;SDS011;10400;53.198;6.592;2023-10-13T11:32:45;14.88;;;4.93;;
20482;SDS011;10400;53.198;6.592;2023-10-13T11:35:35;12.02;;;4.90;;
20482;SDS011;10400;53.198;6.592;2023-10-13T11:43:44;11.80;;;4.88;;
20482;SDS011;10400;53.198;6.592;2023-10-13T11:46:15;15.07;;;5.30;;
20482;SDS011;10400;53.198;6.592;2023-10-13T11:48:43;17.30;;;5.60;;
20482;SDS011;10400;53.198;6.592;2023-10-13T11:51:11;14.30;;;5.55;;
20482;SDS011;10400;53.198;6.592;2023-10-13T11:53:51;12.35;;;5.38;;
20482;SDS011;10400;53.198;6.592;2023-10-13T11:56:17;15.50;;;5.97;;
20482;SDS011;10400;53.198;6.592;2023-10-13T11:58:45;15.80;;;6.00;;
20482;SDS011;10400;53.198;6.592;2023-10-13T12:01:12;13.95;;;5.68;;
20482;SDS011;10400;53.198;6.592;2023-10-13T12:03:38;14.45;;;6.03;;
20482;SDS011;10400;53.198;6.592;2023-10-13T12:06:23;18.63;;;6.07;;
20482;SDS011;10400;53.198;6.592;2023-10-13T12:09:09;12.27;;;5.55;;
20482;SDS011;10400;53.198;6.592;2023-10-13T12:11:44;11.98;;;5.95;;
20482;SDS011;10400;53.198;6.592;2023-10-13T12:14:14;17.60;;;6.03;;
20482;SDS011;10400;53.198;6.592;2023-10-13T12:16:59;16.55;;;5.90;;
20482;SDS011;10400;53.198;6.592;2023-10-13T12:19:29;18.17;;;5.30;;
20482;SDS011;10400;53.198;6.592;2023-10-13T12:21:55;16.17;;;5.78;;
20482;SDS011;10400;53.198;6.592;2023-10-13T12:27:07;17.30;;;5.90;;
20482;SDS011;10400;53.198;6.592;2023-10-13T12:29:48;20.42;;;5.90;;
20482;SDS011;10400;53.198;6.592;2023-10-13T12:32:16;14.07;;;5.38;;
20482;SDS011;10400;53.198;6.592;2023-10-13T12:34:47;15.15;;;5.70;;
20482;SDS011;10400;53.198;6.592;2023-10-13T12:37:23;17.25;;;5.43;;
20482;SDS011;10400;53.198;6.592;2023-10-13T12:40:01;15.45;;;5.32;;
20482;SDS011;10400;53.198;6.592;2023-10-13T12:42:49;16.45;;;5.25;;
20482;SDS011;10400;53.198;6.592;2023-10-13T12:45:38;16.83;;;6.45;;
20482;SDS011;10400;53.198;6.592;2023-10-13T12:48:29;13.48;;;6.13;;
20482;SDS011;10400;53.198;6.592;2023-10-13T12:51:15;18.05;;;6.00;;
20482;SDS011;10400;53.198;6.592;2023-10-13T12:53:53;18.17;;;6.20;;
20482;SDS011;10400;53.198;6.592;2023-10-13T12:56:20;16.17;;;5.47;;
20482;SDS011;10400;53.198;6.592;2023-10-13T12:58:53;18.42;;;6.72;;
20482;SDS011;10400;53.198;6.592;2023-10-13T13:01:20;17.60;;;6.63;;
20482;SDS011;10400;53.198;6.592;2023-10-13T13:03:46;17.90;;;6.43;;
20482;SDS011;10400;53.198;6.592;2023-10-13T13:06:17;19.58;;;6.55;;
20482;SDS011;10400;53.198;6.592;2023-10-13T13:08:49;14.63;;;6.80;;
20482;SDS011;10400;53.198;6.592;2023-10-13T13:11:22;14.43;;;6.20;;
20482;SDS011;10400;53.198;6.592;2023-10-13T13:13:48;13.95;;;6.38;;
20482;SDS011;10400;53.198;6.592;2023-10-13T13:16:14;25.00;;;8.40;;
20482;SDS011;10400;53.198;6.592;2023-10-13T13:18:44;17.13;;;6.53;;
20482;SDS011;10400;53.198;6.592;2023-10-13T13:21:10;17.73;;;6.63;;
20482;SDS011;10400;53.198;6.592;2023-10-13T13:23:45;17.38;;;7.47;;
20482;SDS011;10400;53.198;6.592;2023-10-13T13:26:11;16.58;;;7.45;;
20482;SDS011;10400;53.198;6.592;2023-10-13T13:28:46;19.40;;;7.70;;
20482;SDS011;10400;53.198;6.592;2023-10-13T13:31:19;16.88;;;7.43;;
20482;SDS011;10400;53.198;6.592;2023-10-13T13:33:54;17.95;;;7.70;;
20482;SDS011;10400;53.198;6.592;2023-10-13T13:36:20;15.23;;;7.20;;
20482;SDS011;10400;53.198;6.592;2023-10-13T13:38:47;20.80;;;7.38;;
20482;SDS011;10400;53.198;6.592;2023-10-13T13:41:20;24.83;;;7.25;;
20482;SDS011;10400;53.198;6.592;2023-10-13T13:43:47;20.15;;;7.45;;
20482;SDS011;10400;53.198;6.592;2023-10-13T13:46:23;21.98;;;8.23;;
20482;SDS011;10400;53.198;6.592;2023-10-13T13:48:52;18.58;;;7.45;;
20482;SDS011;10400;53.198;6.592;2023-10-13T13:51:27;21.80;;;7.65;;
20482;SDS011;10400;53.198;6.592;2023-10-13T13:53:57;16.08;;;7.28;;
20482;SDS011;10400;53.198;6.592;2023-10-13T13:56:23;19.33;;;7.30;;
20482;SDS011;10400;53.198;6.592;2023-10-13T13:58:53;13.50;;;7.05;;
20482;SDS011;10400;53.198;6.592;2023-10-13T14:01:20;16.70;;;7.38;;
20482;SDS011;10400;53.198;6.592;2023-10-13T14:03:49;17.85;;;7.40;;
20482;SDS011;10400;53.198;6.592;2023-10-13T14:06:20;18.15;;;6.85;;
20482;SDS011;10400;53.198;6.592;2023-10-13T14:08:49;20.95;;;7.13;;
20482;SDS011;10400;53.198;6.592;2023-10-13T14:11:21;20.83;;;7.47;;
20482;SDS011;10400;53.198;6.592;2023-10-13T14:14:04;24.23;;;7.03;;
20482;SDS011;10400;53.198;6.592;2023-10-13T14:16:36;19.65;;;7.18;;
20482;SDS011;10400;53.198;6.592;2023-10-13T14:19:02;19.10;;;7.80;;
20482;SDS011;10400;53.198;6.592;2023-10-13T14:21:33;18.38;;;7.38;;
20482;SDS011;10400;53.198;6.592;2023-10-13T14:24:00;16.65;;;7.00;;
20482;SDS011;10400;53.198;6.592;2023-10-13T14:26:26;15.90;;;7.32;;
20482;SDS011;10400;53.198;6.592;2023-10-13T14:28:53;20.05;;;6.97;;
20482;SDS011;10400;53.198;6.592;2023-10-13T14:31:33;14.02;;;6.70;;
20482;SDS011;10400;53.198;6.592;2023-10-13T14:34:02;18.85;;;7.10;;
20482;SDS011;10400;53.198;6.592;2023-10-13T14:36:28;16.95;;;7.05;;
20482;SDS011;10400;53.198;6.592;2023-10-13T14:38:56;17.00;;;6.82;;
20482;SDS011;10400;53.198;6.592;2023-10-13T14:41:22;21.50;;;7.18;;
20482;SDS011;10400;53.198;6.592;2023-10-13T14:43:47;21.30;;;7.60;;
20482;SDS011;10400;53.198;6.592;2023-10-13T14:46:17;15.23;;;7.60;;
20482;SDS011;10400;53.198;6.592;2023-10-13T14:48:47;17.55;;;6.68;;
20482;SDS011;10400;53.198;6.592;2023-10-13T14:51:14;15.73;;;6.60;;
20482;SDS011;10400;53.198;6.592;2023-10-13T14:53:42;19.70;;;7.05;;
20482;SDS011;10400;53.198;6.592;2023-10-13T14:56:11;18.60;;;6.53;;
20482;SDS011;10400;53.198;6.592;2023-10-13T14:58:38;16.55;;;6.57;;
20482;SDS011;10400;53.198;6.592;2023-10-13T15:01:15;19.25;;;7.38;;
20482;SDS011;10400;53.198;6.592;2023-10-13T15:03:42;18.88;;;7.57;;
20482;SDS011;10400;53.198;6.592;2023-10-13T15:06:14;17.85;;;6.85;;
20482;SDS011;10400;53.198;6.592;2023-10-13T15:08:49;18.45;;;6.70;;
20482;SDS011;10400;53.198;6.592;2023-10-13T15:11:16;13.70;;;6.40;;
20482;SDS011;10400;53.198;6.592;2023-10-13T15:13:45;17.50;;;6.72;;
20482;SDS011;10400;53.198;6.592;2023-10-13T15:16:16;16.73;;;7.10;;
20482;SDS011;10400;53.198;6.592;2023-10-13T15:18:45;13.18;;;6.15;;
20482;SDS011;10400;53.198;6.592;2023-10-13T15:21:22;17.73;;;7.32;;
20482;SDS011;10400;53.198;6.592;2023-10-13T15:23:51;20.70;;;7.78;;
20482;SDS011;10400;53.198;6.592;2023-10-13T15:26:21;17.45;;;7.15;;